createdAt,value
2022-08-27T00:00:33.459Z,3.15
2022-08-27T00:03:00.135Z,3.45
2022-08-27T00:05:26.726Z,3.80
2022-08-27T00:07:54.006Z,3.70
2022-08-27T00:10:25.162Z,3.15
2022-08-27T00:12:52.191Z,3.63
2022-08-27T00:15:19.751Z,3.72
2022-08-27T00:17:47.465Z,3.08
2022-08-27T00:20:17.464Z,3.65
2022-08-27T00:22:44.438Z,3.42
2022-08-27T00:25:12.409Z,3.17
2022-08-27T00:27:39.289Z,3.08
2022-08-27T00:30:11.206Z,3.28
2022-08-27T00:32:38.901Z,4.10
2022-08-27T00:35:06.190Z,3.75
2022-08-27T00:37:33.864Z,3.53
2022-08-27T00:40:01.153Z,2.65
2022-08-27T00:42:27.847Z,3.67
2022-08-27T00:44:59.366Z,3.25
2022-08-27T00:47:29.959Z,3.25
2022-08-27T00:50:02.513Z,3.08
2022-08-27T00:52:36.761Z,3.63
2022-08-27T00:55:08.057Z,3.30
2022-08-27T00:57:38.904Z,4.00
2022-08-27T01:00:09.639Z,3.42
2022-08-27T01:02:36.368Z,3.85
2022-08-27T01:05:07.445Z,4.18
2022-08-27T01:07:37.822Z,3.50
2022-08-27T01:10:07.489Z,3.63
2022-08-27T01:12:34.959Z,3.70
2022-08-27T01:15:07.383Z,2.97
2022-08-27T01:17:38.869Z,2.80
2022-08-27T01:20:12.556Z,3.17
2022-08-27T01:22:53.789Z,3.65
2022-08-27T01:25:21.854Z,4.15
2022-08-27T01:27:48.557Z,3.70
2022-08-27T01:30:18.502Z,3.72
2022-08-27T01:32:46.053Z,3.95
2022-08-27T01:35:14.548Z,3.40
2022-08-27T01:37:44.172Z,3.85
2022-08-27T01:40:13.464Z,3.67
2022-08-27T01:42:44.358Z,3.97
2022-08-27T01:45:24.732Z,3.72
2022-08-27T01:47:51.774Z,4.03
2022-08-27T01:50:26.164Z,4.35
2022-08-27T01:52:53.417Z,4.07
2022-08-27T01:55:22.762Z,4.95
2022-08-27T01:57:49.736Z,4.30
2022-08-27T02:00:23.893Z,3.65
2022-08-27T02:02:50.744Z,4.10
2022-08-27T02:05:18.243Z,3.70
2022-08-27T02:07:45.512Z,4.40
2022-08-27T02:10:16.090Z,5.32
2022-08-27T02:12:42.764Z,5.47
2022-08-27T02:15:09.685Z,4.82
2022-08-27T02:17:36.438Z,6.18
2022-08-27T02:20:06.984Z,5.65
2022-08-27T02:22:33.472Z,6.47
2022-08-27T02:25:00.130Z,6.40
2022-08-27T02:27:26.774Z,6.80
2022-08-27T02:29:53.330Z,8.07
2022-08-27T02:32:31.147Z,8.23
2022-08-27T02:34:59.572Z,9.00
2022-08-27T02:37:26.769Z,8.25
2022-08-27T02:39:53.717Z,8.60
2022-08-27T02:42:20.544Z,8.38
2022-08-27T02:44:47.362Z,8.48
2022-08-27T02:47:14.562Z,8.60
2022-08-27T02:49:41.338Z,9.18
2022-08-27T02:52:08.145Z,9.45
2022-08-27T02:54:35.017Z,8.27
2022-08-27T02:57:02.415Z,9.23
2022-08-27T02:59:29.023Z,8.52
2022-08-27T03:01:55.805Z,7.45
2022-08-27T03:04:23.028Z,8.88
2022-08-27T03:06:50.161Z,9.38
2022-08-27T03:09:16.701Z,8.15
2022-08-27T03:11:43.398Z,9.30
2022-08-27T03:14:10.087Z,9.57
2022-08-27T03:16:37.867Z,8.63
2022-08-27T03:19:07.995Z,9.85
2022-08-27T03:21:35.810Z,9.68
2022-08-27T03:24:09.188Z,9.68
2022-08-27T03:26:38.257Z,9.43
2022-08-27T03:29:04.871Z,9.25
2022-08-27T03:31:31.711Z,9.93
2022-08-27T03:34:03.101Z,8.65
2022-08-27T03:36:31.551Z,8.80
2022-08-27T03:38:58.611Z,9.65
2022-08-27T03:41:39.907Z,8.93
2022-08-27T03:44:21.795Z,9.30
2022-08-27T03:46:49.300Z,9.38
2022-08-27T03:49:20.712Z,9.77
2022-08-27T03:51:49.804Z,9.23
2022-08-27T03:54:16.556Z,9.07
2022-08-27T03:56:43.666Z,8.48
2022-08-27T03:59:10.323Z,8.52
2022-08-27T04:01:37.014Z,8.18
2022-08-27T04:04:03.987Z,7.90
2022-08-27T04:06:30.567Z,7.15
2022-08-27T04:08:57.239Z,7.82
2022-08-27T04:11:24.344Z,6.88
2022-08-27T04:13:51.466Z,6.93
2022-08-27T04:16:18.333Z,8.15
2022-08-27T04:18:45.057Z,6.82
2022-08-27T04:21:14.058Z,7.47
2022-08-27T04:23:42.320Z,8.55
2022-08-27T04:26:11.130Z,7.43
2022-08-27T04:28:38.926Z,8.13
2022-08-27T04:31:06.827Z,8.50
2022-08-27T04:33:34.832Z,7.82
2022-08-27T04:36:07.375Z,7.03
2022-08-27T04:38:34.728Z,7.07
2022-08-27T04:41:23.311Z,6.10
2022-08-27T04:43:52.583Z,6.30
2022-08-27T04:46:24.211Z,5.93
2022-08-27T04:48:51.438Z,5.78
2022-08-27T04:51:18.947Z,5.82
2022-08-27T04:53:45.591Z,5.00
2022-08-27T04:56:17.587Z,5.93
2022-08-27T04:58:44.419Z,4.82
2022-08-27T05:01:23.262Z,5.10
2022-08-27T05:03:50.161Z,5.78
2022-08-27T05:06:17.643Z,5.03
2022-08-27T05:08:44.992Z,4.70
2022-08-27T05:11:15.213Z,4.03
2022-08-27T05:13:46.472Z,4.00
2022-08-27T05:16:22.174Z,4.97
2022-08-27T05:18:50.592Z,4.40
2022-08-27T05:21:22.896Z,4.40
2022-08-27T05:23:50.381Z,5.05
2022-08-27T05:26:17.275Z,5.32
2022-08-27T05:28:44.297Z,4.10
2022-08-27T05:31:12.973Z,4.80
2022-08-27T05:33:40.865Z,3.88
2022-08-27T05:36:09.044Z,4.70
2022-08-27T05:38:36.351Z,4.55
2022-08-27T05:41:12.789Z,4.00
2022-08-27T05:43:41.757Z,4.63
2022-08-27T05:46:12.527Z,5.13
2022-08-27T05:48:40.849Z,4.07
2022-08-27T05:51:13.827Z,4.57
2022-08-27T05:53:49.279Z,4.35
2022-08-27T05:56:18.693Z,4.55
2022-08-27T05:59:03.925Z,4.95
2022-08-27T06:01:33.281Z,4.70
2022-08-27T06:04:00.350Z,4.50
2022-08-27T06:06:26.962Z,5.25
2022-08-27T06:08:54.626Z,3.97
2022-08-27T06:11:22.267Z,4.25
2022-08-27T06:13:48.909Z,4.30
2022-08-27T06:16:18.918Z,4.25
2022-08-27T06:18:47.670Z,4.85
2022-08-27T06:21:15.921Z,4.53
2022-08-27T06:23:43.242Z,4.75
2022-08-27T06:26:12.418Z,4.82
2022-08-27T06:28:45.114Z,4.50
2022-08-27T06:31:16.803Z,6.30
2022-08-27T06:33:45.206Z,5.70
2022-08-27T06:36:14.849Z,5.72
2022-08-27T06:38:43.310Z,3.90
2022-08-27T06:41:16.315Z,5.22
2022-08-27T06:43:50.285Z,6.00
2022-08-27T06:46:20.349Z,6.20
2022-08-27T06:48:47.939Z,5.28
2022-08-27T06:51:17.322Z,5.30
2022-08-27T06:53:45.004Z,5.65
2022-08-27T06:56:13.954Z,6.18
2022-08-27T06:58:41.890Z,4.95
2022-08-27T07:01:13.504Z,5.25
2022-08-27T07:03:40.491Z,5.32
2022-08-27T07:06:08.361Z,5.65
2022-08-27T07:08:35.073Z,5.32
2022-08-27T07:11:02.210Z,5.15
2022-08-27T07:13:30.121Z,5.47
2022-08-27T07:15:57.407Z,5.75
2022-08-27T07:18:27.190Z,5.05
2022-08-27T07:20:54.990Z,4.90
2022-08-27T07:23:21.841Z,5.07
2022-08-27T07:25:48.476Z,4.57
2022-08-27T07:28:15.331Z,4.78
2022-08-27T07:30:41.925Z,4.30
2022-08-27T07:33:09.221Z,5.03
2022-08-27T07:35:36.065Z,3.88
2022-08-27T07:38:02.773Z,3.50
2022-08-27T07:40:29.572Z,4.57
2022-08-27T07:43:14.772Z,4.30
2022-08-27T07:45:48.593Z,3.58
2022-08-27T07:48:19.100Z,4.72
2022-08-27T07:50:45.783Z,4.03
2022-08-27T07:53:12.396Z,4.78
2022-08-27T07:55:39.147Z,4.18
2022-08-27T07:58:06.105Z,3.95
2022-08-27T08:00:40.895Z,4.45
2022-08-27T08:03:07.611Z,4.00
2022-08-27T08:05:34.427Z,3.38
2022-08-27T08:08:01.080Z,4.53
2022-08-27T08:10:30.421Z,4.90
2022-08-27T08:12:59.042Z,4.20
2022-08-27T08:15:25.773Z,4.30
2022-08-27T08:17:52.408Z,4.07
2022-08-27T08:20:27.612Z,4.13
2022-08-27T08:23:03.123Z,4.75
2022-08-27T08:25:34.581Z,4.05
2022-08-27T08:28:05.608Z,4.57
2022-08-27T08:30:35.444Z,3.92
2022-08-27T08:33:02.354Z,3.85
2022-08-27T08:35:35.002Z,4.53
2022-08-27T08:38:07.272Z,4.10
2022-08-27T08:40:38.971Z,3.88
2022-08-27T08:43:10.814Z,3.40
2022-08-27T08:45:41.837Z,3.75
2022-08-27T08:48:13.316Z,3.63
2022-08-27T08:51:01.426Z,3.08
2022-08-27T08:53:53.129Z,3.22
2022-08-27T08:56:40.380Z,3.55
2022-08-27T08:59:38.617Z,4.28
2022-08-27T09:02:11.399Z,3.10
2022-08-27T09:04:40.456Z,3.63
2022-08-27T09:07:21.823Z,4.50
2022-08-27T09:10:18.715Z,2.75
2022-08-27T09:12:45.806Z,3.25
2022-08-27T09:15:34.793Z,3.40
2022-08-27T09:18:14.161Z,3.70
2022-08-27T09:20:46.414Z,2.72
2022-08-27T09:23:26.582Z,3.03
2022-08-27T09:25:53.134Z,2.88
2022-08-27T09:28:47.577Z,2.90
2022-08-27T09:31:18.109Z,3.08
2022-08-27T09:33:55.787Z,3.25
2022-08-27T09:36:24.114Z,2.97
2022-08-27T09:38:58.634Z,2.78
2022-08-27T09:41:30.534Z,2.75
2022-08-27T09:44:07.332Z,2.38
2022-08-27T09:46:34.153Z,2.67
2022-08-27T09:49:13.651Z,2.75
2022-08-27T09:51:43.225Z,2.88
2022-08-27T09:54:11.187Z,2.85
2022-08-27T09:56:40.476Z,2.90
2022-08-27T09:59:10.539Z,2.60
2022-08-27T10:01:50.316Z,2.72
2022-08-27T10:04:24.266Z,5.45
2022-08-27T10:06:51.906Z,2.80
2022-08-27T10:09:34.851Z,4.75
2022-08-27T10:12:12.188Z,3.22
2022-08-27T10:14:44.534Z,3.03
2022-08-27T10:17:18.566Z,2.88
2022-08-27T10:20:12.937Z,2.75
2022-08-27T10:23:05.798Z,2.63
2022-08-27T10:25:55.840Z,2.72
2022-08-27T10:28:51.034Z,3.25
2022-08-27T10:31:30.782Z,5.95
2022-08-27T10:34:34.907Z,2.65
2022-08-27T10:37:24.829Z,2.35
2022-08-27T10:40:12.021Z,2.83
2022-08-27T10:43:06.295Z,2.45
2022-08-27T10:45:51.986Z,2.20
2022-08-27T10:48:36.375Z,2.50
2022-08-27T10:51:18.341Z,2.45
2022-08-27T10:53:53.819Z,2.30
2022-08-27T10:56:44.330Z,1.77
2022-08-27T10:59:30.063Z,2.10
2022-08-27T11:02:33.447Z,1.88
2022-08-27T11:05:06.465Z,2.20
2022-08-27T11:07:37.870Z,1.95
2022-08-27T11:10:27.317Z,2.10
2022-08-27T11:13:05.899Z,2.58
2022-08-27T11:15:38.837Z,1.95
2022-08-27T11:18:15.522Z,1.83
2022-08-27T11:20:55.337Z,2.05
2022-08-27T11:23:28.128Z,1.58
2022-08-27T11:26:02.186Z,1.42
2022-08-27T11:28:38.885Z,1.85
2022-08-27T11:31:27.359Z,1.60
2022-08-27T11:34:32.673Z,1.42
2022-08-27T11:37:08.059Z,2.10
2022-08-27T11:40:19.096Z,1.52
2022-08-27T11:42:57.601Z,1.77
2022-08-27T11:45:38.766Z,1.75
2022-08-27T11:48:42.335Z,2.00
2022-08-27T11:51:15.934Z,2.25
2022-08-27T11:53:57.934Z,2.00
2022-08-27T11:56:30.936Z,2.10
2022-08-27T11:59:26.669Z,2.60
2022-08-27T12:02:09.871Z,2.97
2022-08-27T12:04:40.331Z,1.80
2022-08-27T12:07:27.465Z,1.90
2022-08-27T12:09:59.854Z,2.13
2022-08-27T12:12:44.596Z,2.70
2022-08-27T12:15:27.578Z,2.25
2022-08-27T12:18:10.454Z,2.05
2022-08-27T12:20:49.312Z,2.05
2022-08-27T12:23:44.091Z,2.08
2022-08-27T12:26:17.078Z,3.00
2022-08-27T12:28:43.795Z,2.42
2022-08-27T12:31:10.916Z,2.55
2022-08-27T12:33:47.046Z,2.65
2022-08-27T12:36:28.129Z,2.72
2022-08-27T12:38:58.882Z,3.20
2022-08-27T12:41:44.300Z,4.05
2022-08-27T12:44:23.550Z,3.15
2022-08-27T12:46:55.005Z,3.97
2022-08-27T12:49:38.758Z,3.42
2022-08-27T12:52:19.301Z,3.63
2022-08-27T12:55:05.602Z,4.03
2022-08-27T12:57:56.740Z,4.93
2022-08-27T13:00:26.720Z,5.05
2022-08-27T13:03:12.431Z,5.65
2022-08-27T13:05:42.561Z,4.63
2022-08-27T13:08:24.478Z,5.63
2022-08-27T13:10:51.298Z,5.95
2022-08-27T13:13:20.942Z,6.95
2022-08-27T13:15:51.363Z,5.40
2022-08-27T13:18:18.774Z,4.97
2022-08-27T13:20:52.732Z,6.07
2022-08-27T13:23:24.186Z,6.30
2022-08-27T13:26:11.967Z,5.72
2022-08-27T13:28:41.035Z,5.78
2022-08-27T13:31:10.522Z,5.35
2022-08-27T13:33:40.047Z,5.65
2022-08-27T13:36:09.519Z,5.72
2022-08-27T13:38:49.335Z,4.70
2022-08-27T13:41:33.761Z,4.60
2022-08-27T13:44:14.634Z,5.32
2022-08-27T13:46:59.041Z,5.57
2022-08-27T13:49:28.323Z,5.55
2022-08-27T13:52:09.686Z,5.38
2022-08-27T13:54:36.551Z,4.75
2022-08-27T13:57:08.848Z,4.68
2022-08-27T13:59:43.199Z,4.90
2022-08-27T14:02:10.086Z,4.68
2022-08-27T14:05:06.242Z,3.90
2022-08-27T14:07:36.079Z,4.90
2022-08-27T14:10:07.735Z,4.72
2022-08-27T14:12:40.503Z,4.57
2022-08-27T14:15:31.913Z,4.43
2022-08-27T14:17:58.617Z,4.70
2022-08-27T14:20:26.220Z,4.50
2022-08-27T14:22:52.808Z,3.95
2022-08-27T14:25:21.488Z,5.25
2022-08-27T14:27:53.995Z,4.78
2022-08-27T14:30:31.560Z,4.15
2022-08-27T14:33:00.498Z,3.90
2022-08-27T14:35:29.369Z,5.20
2022-08-27T14:37:56.674Z,5.03
2022-08-27T14:40:23.498Z,4.13
2022-08-27T14:42:50.266Z,5.47
2022-08-27T14:45:17.909Z,4.25
2022-08-27T14:47:45.429Z,4.90
2022-08-27T14:50:13.386Z,5.25
2022-08-27T14:52:41.056Z,4.43
2022-08-27T14:55:11.030Z,4.20
2022-08-27T14:57:37.979Z,3.90
2022-08-27T15:00:07.025Z,4.18
2022-08-27T15:02:34.362Z,4.32
2022-08-27T15:05:00.976Z,5.00
2022-08-27T15:07:31.034Z,5.05
2022-08-27T15:09:57.629Z,4.20
2022-08-27T15:12:25.936Z,4.00
2022-08-27T15:14:53.656Z,4.28
2022-08-27T15:17:34.056Z,5.65
2022-08-27T15:20:04.708Z,4.50
2022-08-27T15:22:34.235Z,4.13
2022-08-27T15:25:02.943Z,4.05
2022-08-27T15:27:38.810Z,4.97
2022-08-27T15:30:12.037Z,4.63
2022-08-27T15:32:44.206Z,5.13
2022-08-27T15:35:15.385Z,4.82
2022-08-27T15:37:43.723Z,5.15
2022-08-27T15:40:12.613Z,4.55
2022-08-27T15:42:39.394Z,3.95
2022-08-27T15:45:07.379Z,4.35
2022-08-27T15:47:34.531Z,5.05
2022-08-27T15:50:01.193Z,5.53
2022-08-27T15:52:36.057Z,4.25
2022-08-27T15:55:18.736Z,4.35
2022-08-27T15:57:45.506Z,4.03
2022-08-27T16:00:13.057Z,3.95
2022-08-27T16:02:41.891Z,4.22
2022-08-27T16:05:09.639Z,4.65
2022-08-27T16:07:36.411Z,4.05
2022-08-27T16:10:04.913Z,4.97
2022-08-27T16:12:31.641Z,4.88
2022-08-27T16:14:58.388Z,3.97
2022-08-27T16:17:26.667Z,5.00
2022-08-27T16:19:53.756Z,4.50
2022-08-27T16:22:20.761Z,3.88
2022-08-27T16:24:47.367Z,5.55
2022-08-27T16:27:13.935Z,3.88
2022-08-27T16:29:40.650Z,4.82
2022-08-27T16:32:14.183Z,3.88
2022-08-27T16:34:41.158Z,4.68
2022-08-27T16:37:07.682Z,4.13
2022-08-27T16:39:38.691Z,4.35
2022-08-27T16:42:10.294Z,4.47
2022-08-27T16:44:38.482Z,5.25
2022-08-27T16:47:06.782Z,4.68
2022-08-27T16:49:52.382Z,3.95
2022-08-27T16:52:20.957Z,5.20
2022-08-27T16:54:47.608Z,4.60
2022-08-27T16:57:14.241Z,4.03
2022-08-27T16:59:40.974Z,5.40
2022-08-27T17:02:25.525Z,4.82
2022-08-27T17:05:01.386Z,4.63
2022-08-27T17:07:48.291Z,4.00
2022-08-27T17:10:17.724Z,4.57
2022-08-27T17:12:46.351Z,4.97
2022-08-27T17:15:14.630Z,4.53
2022-08-27T17:17:41.937Z,4.28
2022-08-27T17:20:09.134Z,5.55
2022-08-27T17:22:35.865Z,3.90
2022-08-27T17:25:02.620Z,4.32
2022-08-27T17:27:29.853Z,4.32
2022-08-27T17:29:56.458Z,4.93
2022-08-27T17:32:23.181Z,5.70
2022-08-27T17:34:49.869Z,3.80
2022-08-27T17:37:16.390Z,4.40
2022-08-27T17:39:45.591Z,4.22
2022-08-27T17:42:12.187Z,4.70
2022-08-27T17:44:39.147Z,4.75
2022-08-27T17:47:08.408Z,4.20
2022-08-27T17:49:36.033Z,4.68
2022-08-27T17:52:11.112Z,4.25
2022-08-27T17:54:46.494Z,5.22
2022-08-27T17:57:16.103Z,4.72
2022-08-27T17:59:43.008Z,4.53
2022-08-27T18:02:13.996Z,4.50
2022-08-27T18:04:40.609Z,4.60
2022-08-27T18:07:07.361Z,4.35
2022-08-27T18:09:34.108Z,4.10
2022-08-27T18:12:01.445Z,4.93
2022-08-27T18:14:28.262Z,4.45
2022-08-27T18:16:55.021Z,4.10
2022-08-27T18:19:21.769Z,3.90
2022-08-27T18:21:48.479Z,4.35
2022-08-27T18:24:16.382Z,4.63
2022-08-27T18:26:43.974Z,4.53
2022-08-27T18:29:12.883Z,4.25
2022-08-27T18:31:39.632Z,5.80
2022-08-27T18:34:06.396Z,4.90
2022-08-27T18:36:33.147Z,4.25
2022-08-27T18:38:59.750Z,4.53
2022-08-27T18:41:30.598Z,4.80
2022-08-27T18:43:57.992Z,4.07
2022-08-27T18:46:24.948Z,4.35
2022-08-27T18:48:51.585Z,4.35
2022-08-27T18:51:19.843Z,4.72
2022-08-27T18:53:47.775Z,4.53
2022-08-27T18:56:18.869Z,4.55
2022-08-27T18:58:47.016Z,5.13
2022-08-27T19:01:17.303Z,4.13
2022-08-27T19:03:47.654Z,4.30
2022-08-27T19:06:17.650Z,4.28
2022-08-27T19:08:44.845Z,4.05
2022-08-27T19:11:11.782Z,5.50
2022-08-27T19:13:38.381Z,4.07
2022-08-27T19:16:08.470Z,3.85
2022-08-27T19:18:38.023Z,4.65
2022-08-27T19:21:05.913Z,4.22
2022-08-27T19:23:32.645Z,4.38
2022-08-27T19:26:00.441Z,4.00
2022-08-27T19:28:35.710Z,3.95
2022-08-27T19:31:02.274Z,3.53
2022-08-27T19:33:29.110Z,4.32
2022-08-27T19:35:57.090Z,4.90
2022-08-27T19:38:26.079Z,4.03
2022-08-27T19:40:52.749Z,4.13
2022-08-27T19:43:19.412Z,4.65
2022-08-27T19:45:46.341Z,4.32
2022-08-27T19:48:14.321Z,4.32
2022-08-27T19:50:40.911Z,3.90
2022-08-27T19:53:07.509Z,5.25
2022-08-27T19:55:34.026Z,4.57
2022-08-27T19:58:00.736Z,3.83
2022-08-27T20:00:27.620Z,3.83
2022-08-27T20:02:55.455Z,4.32
2022-08-27T20:05:23.033Z,4.57
2022-08-27T20:07:53.090Z,4.22
2022-08-27T20:10:31.471Z,3.67
2022-08-27T20:12:59.633Z,4.28
2022-08-27T20:15:26.433Z,3.70
2022-08-27T20:17:53.802Z,3.30
2022-08-27T20:20:23.526Z,3.92
2022-08-27T20:22:50.573Z,3.17
2022-08-27T20:25:18.212Z,3.25
2022-08-27T20:27:44.848Z,3.85
2022-08-27T20:30:13.444Z,3.28
2022-08-27T20:32:40.385Z,3.38
2022-08-27T20:35:08.826Z,3.47
2022-08-27T20:37:40.094Z,2.85
2022-08-27T20:40:12.003Z,3.83
2022-08-27T20:42:39.212Z,4.50
2022-08-27T20:45:11.181Z,3.10
2022-08-27T20:47:39.047Z,2.92
2022-08-27T20:50:06.129Z,3.35
2022-08-27T20:52:32.850Z,2.85
2022-08-27T20:54:59.407Z,3.42
2022-08-27T20:57:26.017Z,3.30
2022-08-27T21:00:11.163Z,3.15
2022-08-27T21:02:38.002Z,3.38
2022-08-27T21:05:08.753Z,3.35
2022-08-27T21:07:35.320Z,2.90
2022-08-27T21:10:02.129Z,3.10
2022-08-27T21:12:31.517Z,3.13
2022-08-27T21:14:58.972Z,2.92
2022-08-27T21:17:28.081Z,3.00
2022-08-27T21:19:55.346Z,3.70
2022-08-27T21:22:23.376Z,3.80
2022-08-27T21:24:50.817Z,3.45
2022-08-27T21:27:19.849Z,3.47
2022-08-27T21:29:46.711Z,3.05
2022-08-27T21:32:14.409Z,3.17
2022-08-27T21:34:44.228Z,3.63
2022-08-27T21:37:11.933Z,3.15
2022-08-27T21:39:39.506Z,3.60
2022-08-27T21:42:06.904Z,3.08
2022-08-27T21:44:34.433Z,2.88
2022-08-27T21:47:01.830Z,2.95
2022-08-27T21:49:29.003Z,2.72
2022-08-27T21:51:55.794Z,2.65
2022-08-27T21:54:23.480Z,2.95
2022-08-27T21:56:53.355Z,2.45
2022-08-27T21:59:20.423Z,2.50
2022-08-27T22:01:47.142Z,2.47
2022-08-27T22:04:14.027Z,2.83
2022-08-27T22:06:40.711Z,2.70
2022-08-27T22:09:07.621Z,2.92
2022-08-27T22:11:34.905Z,2.50
2022-08-27T22:14:01.684Z,2.55
2022-08-27T22:16:29.338Z,2.35
2022-08-27T22:18:57.286Z,2.80
2022-08-27T22:21:25.065Z,2.33
2022-08-27T22:23:52.543Z,2.22
2022-08-27T22:26:21.134Z,2.92
2022-08-27T22:28:47.884Z,2.22
2022-08-27T22:31:14.761Z,2.70
2022-08-27T22:33:41.607Z,2.10
2022-08-27T22:36:08.627Z,3.05
2022-08-27T22:38:35.206Z,2.50
2022-08-27T22:41:02.677Z,1.95
2022-08-27T22:43:29.421Z,2.05
2022-08-27T22:45:56.163Z,2.47
2022-08-27T22:48:22.916Z,2.03
2022-08-27T22:50:49.555Z,2.20
2022-08-27T22:53:16.361Z,2.58
2022-08-27T22:55:46.766Z,4.07
2022-08-27T22:58:16.274Z,2.90
2022-08-27T23:00:45.309Z,2.50
2022-08-27T23:03:19.270Z,2.58
2022-08-27T23:05:46.021Z,2.35
2022-08-27T23:08:13.999Z,2.70
2022-08-27T23:10:41.976Z,2.25
2022-08-27T23:13:09.968Z,2.35
2022-08-27T23:15:38.635Z,3.20
2022-08-27T23:18:05.606Z,3.20
2022-08-27T23:20:32.547Z,2.15
2022-08-27T23:22:59.336Z,3.13
2022-08-27T23:25:45.608Z,2.17
2022-08-27T23:28:15.185Z,1.80
2022-08-27T23:30:43.875Z,2.35
2022-08-27T23:33:10.997Z,2.70
2022-08-27T23:35:37.683Z,2.30
2022-08-27T23:38:04.793Z,2.88
2022-08-27T23:40:31.680Z,2.55
2022-08-27T23:42:58.497Z,2.72
2022-08-27T23:45:26.168Z,1.90
2022-08-27T23:47:53.634Z,1.88
2022-08-27T23:50:23.091Z,3.15
2022-08-27T23:53:00.823Z,2.33
2022-08-27T23:55:27.570Z,1.83
2022-08-27T23:57:57.725Z,2.17
